sensor_id;sensor_type;location;lat;lon;timestamp;P1;durP1;ratioP1;P2;durP2;ratioP2
6209;SDS011;3138;52.550;13.148;2022-09-17T00:01:32;8.70;;;2.00;;
6209;SDS011;3138;52.550;13.148;2022-09-17T00:03:59;7.70;;;2.17;;
6209;SDS011;3138;52.550;13.148;2022-09-17T00:06:28;12.03;;;2.87;;
6209;SDS011;3138;52.550;13.148;2022-09-17T00:08:55;7.83;;;1.83;;
6209;SDS011;3138;52.550;13.148;2022-09-17T00:11:23;9.03;;;2.20;;
6209;SDS011;3138;52.550;13.148;2022-09-17T00:13:52;16.73;;;2.70;;
6209;SDS011;3138;52.550;13.148;2022-09-17T00:16:23;12.47;;;2.40;;
6209;SDS011;3138;52.550;13.148;2022-09-17T00:18:53;13.97;;;2.60;;
6209;SDS011;3138;52.550;13.148;2022-09-17T00:21:20;14.43;;;2.20;;
6209;SDS011;3138;52.550;13.148;2022-09-17T00:23:48;12.17;;;2.10;;
6209;SDS011;3138;52.550;13.148;2022-09-17T00:26:18;8.40;;;1.87;;
6209;SDS011;3138;52.550;13.148;2022-09-17T00:28:47;6.10;;;2.07;;
6209;SDS011;3138;52.550;13.148;2022-09-17T00:31:15;10.17;;;2.13;;
6209;SDS011;3138;52.550;13.148;2022-09-17T00:33:41;14.87;;;2.43;;
6209;SDS011;3138;52.550;13.148;2022-09-17T00:36:09;12.30;;;1.90;;
6209;SDS011;3138;52.550;13.148;2022-09-17T00:38:36;10.73;;;2.33;;
6209;SDS011;3138;52.550;13.148;2022-09-17T00:41:03;21.43;;;3.00;;
6209;SDS011;3138;52.550;13.148;2022-09-17T00:43:40;9.20;;;1.70;;
6209;SDS011;3138;52.550;13.148;2022-09-17T00:46:13;5.77;;;1.90;;
6209;SDS011;3138;52.550;13.148;2022-09-17T00:48:57;9.00;;;2.20;;
6209;SDS011;3138;52.550;13.148;2022-09-17T00:51:30;9.23;;;1.70;;
6209;SDS011;3138;52.550;13.148;2022-09-17T00:54:01;12.83;;;2.80;;
6209;SDS011;3138;52.550;13.148;2022-09-17T00:56:30;17.17;;;2.63;;
6209;SDS011;3138;52.550;13.148;2022-09-17T00:59:00;10.20;;;1.70;;
6209;SDS011;3138;52.550;13.148;2022-09-17T01:01:27;11.03;;;2.40;;
6209;SDS011;3138;52.550;13.148;2022-09-17T01:03:54;6.23;;;2.40;;
6209;SDS011;3138;52.550;13.148;2022-09-17T01:06:23;6.53;;;2.10;;
6209;SDS011;3138;52.550;13.148;2022-09-17T01:09:04;8.57;;;2.57;;
6209;SDS011;3138;52.550;13.148;2022-09-17T01:12:01;10.80;;;2.50;;
6209;SDS011;3138;52.550;13.148;2022-09-17T01:14:49;8.13;;;1.90;;
6209;SDS011;3138;52.550;13.148;2022-09-17T01:17:26;9.47;;;2.80;;
6209;SDS011;3138;52.550;13.148;2022-09-17T01:20:08;25.87;;;2.60;;
6209;SDS011;3138;52.550;13.148;2022-09-17T01:23:06;17.80;;;2.50;;
6209;SDS011;3138;52.550;13.148;2022-09-17T01:25:50;22.70;;;2.80;;
6209;SDS011;3138;52.550;13.148;2022-09-17T01:28:28;17.03;;;2.50;;
6209;SDS011;3138;52.550;13.148;2022-09-17T01:31:07;11.30;;;1.83;;
6209;SDS011;3138;52.550;13.148;2022-09-17T01:33:47;15.40;;;3.63;;
6209;SDS011;3138;52.550;13.148;2022-09-17T01:36:30;7.70;;;2.00;;
6209;SDS011;3138;52.550;13.148;2022-09-17T01:39:06;7.30;;;2.10;;
6209;SDS011;3138;52.550;13.148;2022-09-17T01:41:42;12.43;;;2.80;;
6209;SDS011;3138;52.550;13.148;2022-09-17T01:44:20;11.23;;;2.67;;
6209;SDS011;3138;52.550;13.148;2022-09-17T01:46:53;13.57;;;3.20;;
6209;SDS011;3138;52.550;13.148;2022-09-17T01:49:23;4.27;;;2.20;;
6209;SDS011;3138;52.550;13.148;2022-09-17T01:51:50;22.60;;;2.33;;
6209;SDS011;3138;52.550;13.148;2022-09-17T01:54:21;14.10;;;4.83;;
6209;SDS011;3138;52.550;13.148;2022-09-17T01:56:52;20.77;;;3.00;;
6209;SDS011;3138;52.550;13.148;2022-09-17T01:59:22;6.97;;;2.37;;
6209;SDS011;3138;52.550;13.148;2022-09-17T02:01:55;15.87;;;3.03;;
6209;SDS011;3138;52.550;13.148;2022-09-17T02:04:27;12.80;;;3.10;;
6209;SDS011;3138;52.550;13.148;2022-09-17T02:06:57;16.53;;;3.23;;
6209;SDS011;3138;52.550;13.148;2022-09-17T02:09:28;18.90;;;3.57;;
6209;SDS011;3138;52.550;13.148;2022-09-17T02:12:02;17.17;;;3.00;;
6209;SDS011;3138;52.550;13.148;2022-09-17T02:14:34;12.10;;;2.93;;
6209;SDS011;3138;52.550;13.148;2022-09-17T02:17:06;11.27;;;2.97;;
6209;SDS011;3138;52.550;13.148;2022-09-17T02:19:41;33.13;;;4.03;;
6209;SDS011;3138;52.550;13.148;2022-09-17T02:22:11;18.30;;;3.70;;
6209;SDS011;3138;52.550;13.148;2022-09-17T02:24:46;18.80;;;3.47;;
6209;SDS011;3138;52.550;13.148;2022-09-17T02:27:19;15.70;;;3.53;;
6209;SDS011;3138;52.550;13.148;2022-09-17T02:29:54;22.00;;;3.70;;
6209;SDS011;3138;52.550;13.148;2022-09-17T02:32:22;19.63;;;3.87;;
6209;SDS011;3138;52.550;13.148;2022-09-17T02:34:49;27.47;;;3.33;;
6209;SDS011;3138;52.550;13.148;2022-09-17T02:37:17;16.83;;;3.43;;
6209;SDS011;3138;52.550;13.148;2022-09-17T02:39:44;13.63;;;2.93;;
6209;SDS011;3138;52.550;13.148;2022-09-17T02:42:14;15.47;;;3.67;;
6209;SDS011;3138;52.550;13.148;2022-09-17T02:44:48;32.60;;;3.83;;
6209;SDS011;3138;52.550;13.148;2022-09-17T02:47:35;10.57;;;3.47;;
6209;SDS011;3138;52.550;13.148;2022-09-17T02:50:18;13.73;;;3.60;;
6209;SDS011;3138;52.550;13.148;2022-09-17T02:53:05;13.70;;;3.10;;
6209;SDS011;3138;52.550;13.148;2022-09-17T02:55:44;12.77;;;2.87;;
6209;SDS011;3138;52.550;13.148;2022-09-17T02:58:20;17.00;;;3.97;;
6209;SDS011;3138;52.550;13.148;2022-09-17T03:00:51;15.37;;;2.93;;
6209;SDS011;3138;52.550;13.148;2022-09-17T03:03:20;18.83;;;3.40;;
6209;SDS011;3138;52.550;13.148;2022-09-17T03:05:51;8.87;;;2.53;;
6209;SDS011;3138;52.550;13.148;2022-09-17T03:08:19;13.43;;;3.10;;
6209;SDS011;3138;52.550;13.148;2022-09-17T03:10:53;17.63;;;3.50;;
6209;SDS011;3138;52.550;13.148;2022-09-17T03:13:20;21.77;;;3.00;;
6209;SDS011;3138;52.550;13.148;2022-09-17T03:15:47;12.87;;;3.03;;
6209;SDS011;3138;52.550;13.148;2022-09-17T03:18:14;18.77;;;4.10;;
6209;SDS011;3138;52.550;13.148;2022-09-17T03:20:42;16.30;;;3.17;;
6209;SDS011;3138;52.550;13.148;2022-09-17T03:23:08;35.97;;;3.60;;
6209;SDS011;3138;52.550;13.148;2022-09-17T03:25:35;25.33;;;3.87;;
6209;SDS011;3138;52.550;13.148;2022-09-17T03:28:02;19.33;;;2.90;;
6209;SDS011;3138;52.550;13.148;2022-09-17T03:30:28;8.00;;;3.00;;
6209;SDS011;3138;52.550;13.148;2022-09-17T03:32:55;19.10;;;3.73;;
6209;SDS011;3138;52.550;13.148;2022-09-17T03:35:22;14.77;;;3.17;;
6209;SDS011;3138;52.550;13.148;2022-09-17T03:37:50;15.23;;;3.00;;
6209;SDS011;3138;52.550;13.148;2022-09-17T03:40:17;19.47;;;4.33;;
6209;SDS011;3138;52.550;13.148;2022-09-17T03:42:43;17.10;;;3.67;;
6209;SDS011;3138;52.550;13.148;2022-09-17T03:45:10;32.10;;;4.27;;
6209;SDS011;3138;52.550;13.148;2022-09-17T03:47:37;12.30;;;3.00;;
6209;SDS011;3138;52.550;13.148;2022-09-17T03:50:04;19.30;;;2.50;;
6209;SDS011;3138;52.550;13.148;2022-09-17T03:52:32;15.23;;;2.87;;
6209;SDS011;3138;52.550;13.148;2022-09-17T03:55:00;11.37;;;2.60;;
6209;SDS011;3138;52.550;13.148;2022-09-17T03:57:27;20.23;;;2.93;;
6209;SDS011;3138;52.550;13.148;2022-09-17T03:59:54;12.70;;;3.50;;
6209;SDS011;3138;52.550;13.148;2022-09-17T04:02:20;20.50;;;3.40;;
6209;SDS011;3138;52.550;13.148;2022-09-17T04:04:47;14.23;;;2.87;;
6209;SDS011;3138;52.550;13.148;2022-09-17T04:07:14;22.23;;;3.17;;
6209;SDS011;3138;52.550;13.148;2022-09-17T04:09:40;16.57;;;2.57;;
6209;SDS011;3138;52.550;13.148;2022-09-17T04:12:08;16.83;;;3.67;;
6209;SDS011;3138;52.550;13.148;2022-09-17T04:14:35;25.97;;;3.70;;
6209;SDS011;3138;52.550;13.148;2022-09-17T04:17:02;25.87;;;3.17;;
6209;SDS011;3138;52.550;13.148;2022-09-17T04:19:28;13.90;;;3.40;;
6209;SDS011;3138;52.550;13.148;2022-09-17T04:21:55;12.60;;;3.20;;
6209;SDS011;3138;52.550;13.148;2022-09-17T04:24:22;13.23;;;2.67;;
6209;SDS011;3138;52.550;13.148;2022-09-17T04:26:48;18.00;;;3.60;;
6209;SDS011;3138;52.550;13.148;2022-09-17T04:29:16;6.33;;;2.23;;
6209;SDS011;3138;52.550;13.148;2022-09-17T04:31:44;19.90;;;3.73;;
6209;SDS011;3138;52.550;13.148;2022-09-17T04:34:11;25.30;;;4.03;;
6209;SDS011;3138;52.550;13.148;2022-09-17T04:36:37;19.63;;;3.30;;
6209;SDS011;3138;52.550;13.148;2022-09-17T04:39:04;19.73;;;3.30;;
6209;SDS011;3138;52.550;13.148;2022-09-17T04:41:31;25.60;;;3.10;;
6209;SDS011;3138;52.550;13.148;2022-09-17T04:43:57;9.47;;;2.60;;
6209;SDS011;3138;52.550;13.148;2022-09-17T04:46:25;17.53;;;3.47;;
6209;SDS011;3138;52.550;13.148;2022-09-17T04:48:52;18.00;;;2.93;;
6209;SDS011;3138;52.550;13.148;2022-09-17T04:51:19;14.93;;;3.50;;
6209;SDS011;3138;52.550;13.148;2022-09-17T04:53:45;11.97;;;2.77;;
6209;SDS011;3138;52.550;13.148;2022-09-17T04:56:12;13.33;;;3.70;;
6209;SDS011;3138;52.550;13.148;2022-09-17T04:58:39;14.73;;;2.60;;
6209;SDS011;3138;52.550;13.148;2022-09-17T05:01:05;21.83;;;3.47;;
6209;SDS011;3138;52.550;13.148;2022-09-17T05:03:34;21.23;;;3.30;;
6209;SDS011;3138;52.550;13.148;2022-09-17T05:06:01;26.30;;;4.57;;
6209;SDS011;3138;52.550;13.148;2022-09-17T05:08:28;18.53;;;3.30;;
6209;SDS011;3138;52.550;13.148;2022-09-17T05:10:54;8.23;;;2.87;;
6209;SDS011;3138;52.550;13.148;2022-09-17T05:13:21;10.80;;;3.00;;
6209;SDS011;3138;52.550;13.148;2022-09-17T05:15:48;23.07;;;3.33;;
6209;SDS011;3138;52.550;13.148;2022-09-17T05:18:15;34.47;;;4.17;;
6209;SDS011;3138;52.550;13.148;2022-09-17T05:20:43;15.50;;;3.23;;
6209;SDS011;3138;52.550;13.148;2022-09-17T05:23:09;11.73;;;3.33;;
6209;SDS011;3138;52.550;13.148;2022-09-17T05:25:36;23.60;;;3.97;;
6209;SDS011;3138;52.550;13.148;2022-09-17T05:28:03;21.03;;;3.70;;
6209;SDS011;3138;52.550;13.148;2022-09-17T05:30:30;16.23;;;3.93;;
6209;SDS011;3138;52.550;13.148;2022-09-17T05:32:57;20.30;;;4.60;;
6209;SDS011;3138;52.550;13.148;2022-09-17T05:35:25;12.83;;;3.07;;
6209;SDS011;3138;52.550;13.148;2022-09-17T05:37:56;21.90;;;5.00;;
6209;SDS011;3138;52.550;13.148;2022-09-17T05:40:23;16.77;;;3.43;;
6209;SDS011;3138;52.550;13.148;2022-09-17T05:42:50;44.80;;;3.93;;
6209;SDS011;3138;52.550;13.148;2022-09-17T05:45:16;14.90;;;4.60;;
6209;SDS011;3138;52.550;13.148;2022-09-17T05:47:43;20.67;;;4.20;;
6209;SDS011;3138;52.550;13.148;2022-09-17T05:50:10;30.80;;;4.77;;
6209;SDS011;3138;52.550;13.148;2022-09-17T05:52:37;25.60;;;5.20;;
6209;SDS011;3138;52.550;13.148;2022-09-17T05:55:06;26.87;;;6.60;;
6209;SDS011;3138;52.550;13.148;2022-09-17T05:57:33;34.83;;;6.27;;
6209;SDS011;3138;52.550;13.148;2022-09-17T06:00:00;31.47;;;5.40;;
6209;SDS011;3138;52.550;13.148;2022-09-17T06:02:27;41.63;;;8.37;;
6209;SDS011;3138;52.550;13.148;2022-09-17T06:04:53;37.53;;;5.70;;
6209;SDS011;3138;52.550;13.148;2022-09-17T06:07:24;43.03;;;6.10;;
6209;SDS011;3138;52.550;13.148;2022-09-17T06:09:51;39.40;;;6.00;;
6209;SDS011;3138;52.550;13.148;2022-09-17T06:12:19;43.50;;;4.77;;
6209;SDS011;3138;52.550;13.148;2022-09-17T06:14:46;21.20;;;4.30;;
6209;SDS011;3138;52.550;13.148;2022-09-17T06:17:12;37.83;;;6.10;;
6209;SDS011;3138;52.550;13.148;2022-09-17T06:19:39;34.93;;;7.93;;
6209;SDS011;3138;52.550;13.148;2022-09-17T06:22:06;30.03;;;5.43;;
6209;SDS011;3138;52.550;13.148;2022-09-17T06:24:32;28.17;;;5.53;;
6209;SDS011;3138;52.550;13.148;2022-09-17T06:26:59;21.50;;;4.67;;
6209;SDS011;3138;52.550;13.148;2022-09-17T06:29:27;36.43;;;6.10;;
6209;SDS011;3138;52.550;13.148;2022-09-17T06:31:54;24.73;;;5.70;;
6209;SDS011;3138;52.550;13.148;2022-09-17T06:34:21;38.77;;;7.17;;
6209;SDS011;3138;52.550;13.148;2022-09-17T06:36:47;31.90;;;7.87;;
6209;SDS011;3138;52.550;13.148;2022-09-17T06:39:14;24.70;;;6.30;;
6209;SDS011;3138;52.550;13.148;2022-09-17T06:41:41;47.00;;;7.10;;
6209;SDS011;3138;52.550;13.148;2022-09-17T06:44:08;36.77;;;6.73;;
6209;SDS011;3138;52.550;13.148;2022-09-17T06:46:36;29.43;;;5.03;;
6209;SDS011;3138;52.550;13.148;2022-09-17T06:49:03;26.70;;;6.30;;
6209;SDS011;3138;52.550;13.148;2022-09-17T06:51:29;51.43;;;6.40;;
6209;SDS011;3138;52.550;13.148;2022-09-17T06:53:56;25.27;;;5.47;;
6209;SDS011;3138;52.550;13.148;2022-09-17T06:56:23;43.43;;;5.17;;
6209;SDS011;3138;52.550;13.148;2022-09-17T06:58:50;30.00;;;4.60;;
6209;SDS011;3138;52.550;13.148;2022-09-17T07:01:16;32.57;;;4.70;;
6209;SDS011;3138;52.550;13.148;2022-09-17T07:03:44;21.20;;;3.93;;
6209;SDS011;3138;52.550;13.148;2022-09-17T07:06:13;31.00;;;5.53;;
6209;SDS011;3138;52.550;13.148;2022-09-17T07:08:40;16.53;;;3.63;;
6209;SDS011;3138;52.550;13.148;2022-09-17T07:11:07;35.87;;;5.60;;
6209;SDS011;3138;52.550;13.148;2022-09-17T07:13:33;17.57;;;3.40;;
6209;SDS011;3138;52.550;13.148;2022-09-17T07:16:01;46.83;;;4.97;;
6209;SDS011;3138;52.550;13.148;2022-09-17T07:18:29;34.77;;;3.43;;
6209;SDS011;3138;52.550;13.148;2022-09-17T07:20:57;29.00;;;3.50;;
6209;SDS011;3138;52.550;13.148;2022-09-17T07:23:26;29.57;;;4.97;;
6209;SDS011;3138;52.550;13.148;2022-09-17T07:25:54;24.80;;;3.83;;
6209;SDS011;3138;52.550;13.148;2022-09-17T07:28:22;28.67;;;4.23;;
6209;SDS011;3138;52.550;13.148;2022-09-17T07:30:49;20.90;;;3.97;;
6209;SDS011;3138;52.550;13.148;2022-09-17T07:33:17;19.90;;;3.23;;
6209;SDS011;3138;52.550;13.148;2022-09-17T07:35:51;34.97;;;3.30;;
6209;SDS011;3138;52.550;13.148;2022-09-17T07:38:19;30.27;;;3.43;;
6209;SDS011;3138;52.550;13.148;2022-09-17T07:40:51;38.73;;;4.63;;
6209;SDS011;3138;52.550;13.148;2022-09-17T07:43:19;29.33;;;4.10;;
6209;SDS011;3138;52.550;13.148;2022-09-17T07:45:46;22.47;;;4.37;;
6209;SDS011;3138;52.550;13.148;2022-09-17T07:48:13;26.97;;;3.80;;
6209;SDS011;3138;52.550;13.148;2022-09-17T07:50:39;21.73;;;3.47;;
6209;SDS011;3138;52.550;13.148;2022-09-17T07:53:06;19.30;;;4.23;;
6209;SDS011;3138;52.550;13.148;2022-09-17T07:55:34;21.60;;;3.10;;
6209;SDS011;3138;52.550;13.148;2022-09-17T07:58:01;20.43;;;3.50;;
6209;SDS011;3138;52.550;13.148;2022-09-17T08:00:27;20.80;;;3.90;;
6209;SDS011;3138;52.550;13.148;2022-09-17T08:02:54;35.53;;;3.87;;
6209;SDS011;3138;52.550;13.148;2022-09-17T08:05:22;18.10;;;4.40;;
6209;SDS011;3138;52.550;13.148;2022-09-17T08:07:49;24.83;;;4.37;;
6209;SDS011;3138;52.550;13.148;2022-09-17T08:10:17;26.97;;;3.70;;
6209;SDS011;3138;52.550;13.148;2022-09-17T08:12:47;17.00;;;2.90;;
6209;SDS011;3138;52.550;13.148;2022-09-17T08:15:14;25.47;;;5.33;;
6209;SDS011;3138;52.550;13.148;2022-09-17T08:17:42;17.50;;;4.80;;
6209;SDS011;3138;52.550;13.148;2022-09-17T08:20:09;12.23;;;3.83;;
6209;SDS011;3138;52.550;13.148;2022-09-17T08:22:36;24.47;;;3.60;;
6209;SDS011;3138;52.550;13.148;2022-09-17T08:25:03;25.40;;;5.90;;
6209;SDS011;3138;52.550;13.148;2022-09-17T08:27:30;27.80;;;4.70;;
6209;SDS011;3138;52.550;13.148;2022-09-17T08:29:58;14.77;;;3.73;;
6209;SDS011;3138;52.550;13.148;2022-09-17T08:32:27;15.20;;;3.50;;
6209;SDS011;3138;52.550;13.148;2022-09-17T08:34:55;16.87;;;3.40;;
6209;SDS011;3138;52.550;13.148;2022-09-17T08:37:21;20.70;;;4.30;;
6209;SDS011;3138;52.550;13.148;2022-09-17T08:39:49;22.13;;;4.83;;
6209;SDS011;3138;52.550;13.148;2022-09-17T08:42:16;28.73;;;7.03;;
6209;SDS011;3138;52.550;13.148;2022-09-17T08:44:48;14.03;;;3.60;;
6209;SDS011;3138;52.550;13.148;2022-09-17T08:47:19;15.83;;;3.03;;
6209;SDS011;3138;52.550;13.148;2022-09-17T08:49:51;15.23;;;3.67;;
6209;SDS011;3138;52.550;13.148;2022-09-17T08:52:34;18.70;;;3.93;;
6209;SDS011;3138;52.550;13.148;2022-09-17T08:55:16;20.60;;;4.00;;
6209;SDS011;3138;52.550;13.148;2022-09-17T08:57:58;19.10;;;3.33;;
6209;SDS011;3138;52.550;13.148;2022-09-17T09:00:48;15.23;;;3.30;;
6209;SDS011;3138;52.550;13.148;2022-09-17T09:03:26;20.37;;;3.70;;
6209;SDS011;3138;52.550;13.148;2022-09-17T09:06:05;12.17;;;2.73;;
6209;SDS011;3138;52.550;13.148;2022-09-17T09:08:33;16.70;;;3.10;;
6209;SDS011;3138;52.550;13.148;2022-09-17T09:11:02;22.63;;;3.33;;
6209;SDS011;3138;52.550;13.148;2022-09-17T09:13:32;17.43;;;3.17;;
6209;SDS011;3138;52.550;13.148;2022-09-17T09:16:04;15.57;;;3.47;;
6209;SDS011;3138;52.550;13.148;2022-09-17T09:18:39;17.13;;;2.33;;
6209;SDS011;3138;52.550;13.148;2022-09-17T09:21:10;27.83;;;10.13;;
6209;SDS011;3138;52.550;13.148;2022-09-17T09:23:49;19.17;;;2.43;;
6209;SDS011;3138;52.550;13.148;2022-09-17T09:26:21;15.07;;;3.90;;
6209;SDS011;3138;52.550;13.148;2022-09-17T09:28:56;16.20;;;3.40;;
6209;SDS011;3138;52.550;13.148;2022-09-17T09:31:40;13.57;;;3.57;;
6209;SDS011;3138;52.550;13.148;2022-09-17T09:34:33;17.87;;;3.90;;
6209;SDS011;3138;52.550;13.148;2022-09-17T09:37:07;28.10;;;3.67;;
6209;SDS011;3138;52.550;13.148;2022-09-17T09:39:39;20.73;;;3.33;;
6209;SDS011;3138;52.550;13.148;2022-09-17T09:42:09;8.17;;;2.50;;
6209;SDS011;3138;52.550;13.148;2022-09-17T09:44:41;17.37;;;3.50;;
6209;SDS011;3138;52.550;13.148;2022-09-17T09:47:11;20.63;;;3.73;;
6209;SDS011;3138;52.550;13.148;2022-09-17T09:49:52;8.37;;;2.00;;
6209;SDS011;3138;52.550;13.148;2022-09-17T09:52:35;16.57;;;3.10;;
6209;SDS011;3138;52.550;13.148;2022-09-17T09:55:14;16.73;;;2.73;;
6209;SDS011;3138;52.550;13.148;2022-09-17T09:57:54;13.27;;;3.10;;
6209;SDS011;3138;52.550;13.148;2022-09-17T10:00:31;26.97;;;3.77;;
6209;SDS011;3138;52.550;13.148;2022-09-17T10:03:02;28.87;;;4.10;;
6209;SDS011;3138;52.550;13.148;2022-09-17T10:05:36;14.47;;;2.20;;
6209;SDS011;3138;52.550;13.148;2022-09-17T10:08:09;17.57;;;2.60;;
6209;SDS011;3138;52.550;13.148;2022-09-17T10:10:37;20.17;;;3.10;;
6209;SDS011;3138;52.550;13.148;2022-09-17T10:13:19;19.80;;;4.10;;
6209;SDS011;3138;52.550;13.148;2022-09-17T10:15:46;26.50;;;4.03;;
6209;SDS011;3138;52.550;13.148;2022-09-17T10:18:17;21.33;;;3.67;;
6209;SDS011;3138;52.550;13.148;2022-09-17T10:20:49;13.07;;;2.93;;
6209;SDS011;3138;52.550;13.148;2022-09-17T10:23:24;13.67;;;3.63;;
6209;SDS011;3138;52.550;13.148;2022-09-17T10:25:52;14.20;;;3.47;;
6209;SDS011;3138;52.550;13.148;2022-09-17T10:28:31;25.00;;;3.50;;
6209;SDS011;3138;52.550;13.148;2022-09-17T10:31:01;19.83;;;2.90;;
6209;SDS011;3138;52.550;13.148;2022-09-17T10:33:32;10.00;;;2.50;;
6209;SDS011;3138;52.550;13.148;2022-09-17T10:36:03;15.63;;;3.50;;
6209;SDS011;3138;52.550;13.148;2022-09-17T10:38:32;24.60;;;3.10;;
6209;SDS011;3138;52.550;13.148;2022-09-17T10:41:12;18.57;;;3.63;;
6209;SDS011;3138;52.550;13.148;2022-09-17T10:43:41;18.13;;;2.87;;
6209;SDS011;3138;52.550;13.148;2022-09-17T10:46:09;11.00;;;3.40;;
6209;SDS011;3138;52.550;13.148;2022-09-17T10:48:41;13.40;;;2.70;;
6209;SDS011;3138;52.550;13.148;2022-09-17T10:51:18;6.33;;;2.77;;
6209;SDS011;3138;52.550;13.148;2022-09-17T10:53:58;18.33;;;2.60;;
6209;SDS011;3138;52.550;13.148;2022-09-17T10:56:33;16.97;;;3.10;;
6209;SDS011;3138;52.550;13.148;2022-09-17T10:59:17;19.83;;;3.50;;
6209;SDS011;3138;52.550;13.148;2022-09-17T11:02:01;11.83;;;2.50;;
6209;SDS011;3138;52.550;13.148;2022-09-17T11:04:49;16.77;;;2.70;;
6209;SDS011;3138;52.550;13.148;2022-09-17T11:10:11;24.03;;;3.00;;
6209;SDS011;3138;52.550;13.148;2022-09-17T11:12:49;9.70;;;2.53;;
6209;SDS011;3138;52.550;13.148;2022-09-17T11:15:32;16.90;;;2.33;;
6209;SDS011;3138;52.550;13.148;2022-09-17T11:18:15;18.37;;;2.80;;
6209;SDS011;3138;52.550;13.148;2022-09-17T11:24:21;10.57;;;2.40;;
6209;SDS011;3138;52.550;13.148;2022-09-17T11:27:20;12.97;;;2.13;;
6209;SDS011;3138;52.550;13.148;2022-09-17T11:30:04;13.33;;;2.67;;
6209;SDS011;3138;52.550;13.148;2022-09-17T11:35:45;13.53;;;2.20;;
6209;SDS011;3138;52.550;13.148;2022-09-17T11:38:15;8.27;;;1.90;;
6209;SDS011;3138;52.550;13.148;2022-09-17T11:40:47;9.20;;;2.53;;
6209;SDS011;3138;52.550;13.148;2022-09-17T11:43:19;10.60;;;1.90;;
6209;SDS011;3138;52.550;13.148;2022-09-17T11:45:58;15.73;;;3.03;;
6209;SDS011;3138;52.550;13.148;2022-09-17T11:48:31;9.20;;;2.10;;
6209;SDS011;3138;52.550;13.148;2022-09-17T11:51:02;7.60;;;2.13;;
6209;SDS011;3138;52.550;13.148;2022-09-17T11:53:39;10.53;;;1.87;;
6209;SDS011;3138;52.550;13.148;2022-09-17T11:56:12;9.77;;;1.50;;
6209;SDS011;3138;52.550;13.148;2022-09-17T11:58:46;10.53;;;2.23;;
6209;SDS011;3138;52.550;13.148;2022-09-17T12:01:18;9.13;;;2.07;;
6209;SDS011;3138;52.550;13.148;2022-09-17T12:03:52;8.50;;;1.87;;
6209;SDS011;3138;52.550;13.148;2022-09-17T12:06:26;8.97;;;1.87;;
6209;SDS011;3138;52.550;13.148;2022-09-17T12:09:00;3.87;;;1.30;;
6209;SDS011;3138;52.550;13.148;2022-09-17T12:11:35;9.43;;;1.60;;
6209;SDS011;3138;52.550;13.148;2022-09-17T12:14:08;10.87;;;1.60;;
6209;SDS011;3138;52.550;13.148;2022-09-17T12:16:41;13.33;;;2.07;;
6209;SDS011;3138;52.550;13.148;2022-09-17T12:19:11;8.10;;;1.53;;
6209;SDS011;3138;52.550;13.148;2022-09-17T12:21:43;9.93;;;1.40;;
6209;SDS011;3138;52.550;13.148;2022-09-17T12:24:13;11.30;;;2.83;;
6209;SDS011;3138;52.550;13.148;2022-09-17T12:26:54;5.97;;;2.60;;
6209;SDS011;3138;52.550;13.148;2022-09-17T12:29:48;18.03;;;2.40;;
6209;SDS011;3138;52.550;13.148;2022-09-17T12:32:33;11.00;;;1.73;;
6209;SDS011;3138;52.550;13.148;2022-09-17T12:35:13;4.30;;;1.33;;
6209;SDS011;3138;52.550;13.148;2022-09-17T12:37:53;5.23;;;2.20;;
6209;SDS011;3138;52.550;13.148;2022-09-17T12:40:37;8.80;;;2.70;;
6209;SDS011;3138;52.550;13.148;2022-09-17T12:43:22;5.90;;;1.90;;
6209;SDS011;3138;52.550;13.148;2022-09-17T12:46:06;3.73;;;1.70;;
6209;SDS011;3138;52.550;13.148;2022-09-17T12:48:48;5.60;;;1.70;;
6209;SDS011;3138;52.550;13.148;2022-09-17T12:54:15;31.47;;;1.93;;
6209;SDS011;3138;52.550;13.148;2022-09-17T12:57:04;14.63;;;1.27;;
6209;SDS011;3138;52.550;13.148;2022-09-17T12:59:40;9.10;;;1.90;;
6209;SDS011;3138;52.550;13.148;2022-09-17T13:02:16;6.40;;;1.90;;
6209;SDS011;3138;52.550;13.148;2022-09-17T13:05:10;14.37;;;2.30;;
6209;SDS011;3138;52.550;13.148;2022-09-17T13:08:10;6.47;;;1.70;;
6209;SDS011;3138;52.550;13.148;2022-09-17T13:10:51;13.47;;;2.10;;
6209;SDS011;3138;52.550;13.148;2022-09-17T13:13:33;9.13;;;2.60;;
6209;SDS011;3138;52.550;13.148;2022-09-17T13:16:08;10.10;;;2.00;;
6209;SDS011;3138;52.550;13.148;2022-09-17T13:18:42;6.03;;;1.70;;
6209;SDS011;3138;52.550;13.148;2022-09-17T13:21:18;11.23;;;1.73;;
6209;SDS011;3138;52.550;13.148;2022-09-17T13:23:48;7.60;;;1.70;;
6209;SDS011;3138;52.550;13.148;2022-09-17T13:26:18;8.00;;;1.70;;
6209;SDS011;3138;52.550;13.148;2022-09-17T13:28:48;11.33;;;1.90;;
6209;SDS011;3138;52.550;13.148;2022-09-17T13:31:20;5.30;;;1.17;;
6209;SDS011;3138;52.550;13.148;2022-09-17T13:33:49;4.63;;;1.80;;
6209;SDS011;3138;52.550;13.148;2022-09-17T13:36:36;10.53;;;1.83;;
6209;SDS011;3138;52.550;13.148;2022-09-17T13:39:05;7.30;;;1.40;;
6209;SDS011;3138;52.550;13.148;2022-09-17T13:41:34;14.27;;;2.30;;
6209;SDS011;3138;52.550;13.148;2022-09-17T13:44:03;12.40;;;2.37;;
6209;SDS011;3138;52.550;13.148;2022-09-17T13:46:33;8.97;;;1.90;;
6209;SDS011;3138;52.550;13.148;2022-09-17T13:49:01;10.20;;;1.77;;
6209;SDS011;3138;52.550;13.148;2022-09-17T13:51:49;6.63;;;1.80;;
6209;SDS011;3138;52.550;13.148;2022-09-17T13:54:18;9.27;;;2.20;;
6209;SDS011;3138;52.550;13.148;2022-09-17T13:56:48;10.90;;;2.30;;
6209;SDS011;3138;52.550;13.148;2022-09-17T13:59:18;6.50;;;1.60;;
6209;SDS011;3138;52.550;13.148;2022-09-17T14:01:56;15.87;;;1.93;;
6209;SDS011;3138;52.550;13.148;2022-09-17T14:04:53;11.90;;;1.60;;
6209;SDS011;3138;52.550;13.148;2022-09-17T14:07:31;23.43;;;1.47;;
6209;SDS011;3138;52.550;13.148;2022-09-17T14:09:59;13.17;;;1.83;;
6209;SDS011;3138;52.550;13.148;2022-09-17T14:15:32;8.37;;;1.03;;
6209;SDS011;3138;52.550;13.148;2022-09-17T14:18:01;6.30;;;1.10;;
6209;SDS011;3138;52.550;13.148;2022-09-17T14:20:49;3.60;;;0.83;;
6209;SDS011;3138;52.550;13.148;2022-09-17T14:23:19;5.23;;;0.93;;
6209;SDS011;3138;52.550;13.148;2022-09-17T14:25:47;5.37;;;0.87;;
6209;SDS011;3138;52.550;13.148;2022-09-17T14:28:19;11.47;;;1.30;;
6209;SDS011;3138;52.550;13.148;2022-09-17T14:30:56;13.17;;;1.03;;
6209;SDS011;3138;52.550;13.148;2022-09-17T14:33:24;1.27;;;0.60;;
6209;SDS011;3138;52.550;13.148;2022-09-17T14:35:57;6.10;;;0.60;;
6209;SDS011;3138;52.550;13.148;2022-09-17T14:38:33;2.77;;;1.00;;
6209;SDS011;3138;52.550;13.148;2022-09-17T14:41:15;1.93;;;0.80;;
6209;SDS011;3138;52.550;13.148;2022-09-17T14:43:47;8.40;;;0.90;;
6209;SDS011;3138;52.550;13.148;2022-09-17T14:46:18;5.80;;;0.73;;
6209;SDS011;3138;52.550;13.148;2022-09-17T14:48:46;1.47;;;0.60;;
6209;SDS011;3138;52.550;13.148;2022-09-17T14:54:06;5.93;;;0.50;;
6209;SDS011;3138;52.550;13.148;2022-09-17T14:56:43;8.50;;;0.53;;
6209;SDS011;3138;52.550;13.148;2022-09-17T14:59:27;3.30;;;0.60;;
6209;SDS011;3138;52.550;13.148;2022-09-17T15:02:17;1.40;;;0.37;;
6209;SDS011;3138;52.550;13.148;2022-09-17T15:04:53;0.70;;;0.70;;
6209;SDS011;3138;52.550;13.148;2022-09-17T15:07:21;4.83;;;0.63;;
6209;SDS011;3138;52.550;13.148;2022-09-17T15:09:49;1.60;;;0.43;;
6209;SDS011;3138;52.550;13.148;2022-09-17T15:12:19;12.33;;;0.80;;
6209;SDS011;3138;52.550;13.148;2022-09-17T15:14:50;2.03;;;1.43;;
6209;SDS011;3138;52.550;13.148;2022-09-17T15:17:18;1.63;;;0.60;;
6209;SDS011;3138;52.550;13.148;2022-09-17T15:19:46;0.97;;;0.40;;
6209;SDS011;3138;52.550;13.148;2022-09-17T15:22:15;2.47;;;0.60;;
6209;SDS011;3138;52.550;13.148;2022-09-17T15:24:47;2.47;;;0.70;;
6209;SDS011;3138;52.550;13.148;2022-09-17T15:27:21;2.30;;;0.60;;
6209;SDS011;3138;52.550;13.148;2022-09-17T15:29:54;0.80;;;0.50;;
6209;SDS011;3138;52.550;13.148;2022-09-17T15:32:23;2.47;;;0.73;;
6209;SDS011;3138;52.550;13.148;2022-09-17T15:37:46;3.60;;;0.80;;
6209;SDS011;3138;52.550;13.148;2022-09-17T15:40:22;5.70;;;1.00;;